createdAt,value
2023-02-13T00:05:42.110Z,17.93
2023-02-13T00:11:35.509Z,17.37
2023-02-13T00:17:31.046Z,15.50
2023-02-13T00:23:24.042Z,16.30
2023-02-13T00:29:17.477Z,16.13
2023-02-13T00:35:12.208Z,17.90
2023-02-13T00:41:06.088Z,18.60
2023-02-13T00:47:00.533Z,19.00
2023-02-13T00:52:55.264Z,22.17
2023-02-13T00:58:48.736Z,25.43
2023-02-13T01:04:41.723Z,18.77
2023-02-13T01:10:36.090Z,23.10
2023-02-13T01:16:29.546Z,21.17
2023-02-13T01:22:22.989Z,22.77
2023-02-13T01:28:17.352Z,23.80
2023-02-13T01:34:10.830Z,25.57
2023-02-13T01:40:04.251Z,22.63
2023-02-13T01:46:00.804Z,22.83
2023-02-13T01:51:57.141Z,22.93
2023-02-13T01:57:55.000Z,21.23
2023-02-13T02:03:53.375Z,21.13
2023-02-13T02:09:47.676Z,19.90
2023-02-13T02:15:43.977Z,23.27
2023-02-13T02:22:17.280Z,19.27
2023-02-13T02:28:31.550Z,18.20
2023-02-13T02:34:37.840Z,19.03
2023-02-13T02:40:39.155Z,20.17
2023-02-13T02:46:37.542Z,17.10
2023-02-13T02:52:45.194Z,16.13
2023-02-13T02:59:03.116Z,19.17
2023-02-13T03:05:19.344Z,14.83
2023-02-13T03:11:32.010Z,14.63
2023-02-13T03:17:42.583Z,13.83
2023-02-13T03:23:47.907Z,13.93
2023-02-13T03:30:12.733Z,14.40
2023-02-13T03:36:30.758Z,13.93
2023-02-13T03:42:33.629Z,13.37
2023-02-13T03:48:49.836Z,12.80
2023-02-13T03:55:04.561Z,14.07
2023-02-13T04:01:02.374Z,12.17
2023-02-13T04:07:01.405Z,10.07
2023-02-13T04:13:01.972Z,11.70
2023-02-13T04:18:57.248Z,10.47
2023-02-13T04:24:51.713Z,11.67
2023-02-13T04:30:45.191Z,12.73
2023-02-13T04:36:38.602Z,10.97
2023-02-13T04:42:32.933Z,13.27
2023-02-13T04:48:26.073Z,13.03
2023-02-13T04:54:19.064Z,13.97
2023-02-13T05:00:14.849Z,12.20
2023-02-13T05:06:08.690Z,11.30
2023-02-13T05:12:01.922Z,12.20
2023-02-13T05:17:56.412Z,16.83
2023-02-13T05:23:50.243Z,10.67
2023-02-13T05:29:43.593Z,12.80
2023-02-13T05:35:38.876Z,12.57
2023-02-13T05:41:31.945Z,12.67
2023-02-13T05:47:25.349Z,13.00
2023-02-13T05:53:19.645Z,11.50
2023-02-13T05:59:13.008Z,12.17
2023-02-13T06:05:06.741Z,12.97
2023-02-13T06:11:01.381Z,13.40
2023-02-13T06:16:54.593Z,13.47
2023-02-13T06:22:49.602Z,10.83
2023-02-13T06:28:44.069Z,11.93
2023-02-13T06:34:37.352Z,12.83
2023-02-13T06:40:30.477Z,13.70
2023-02-13T06:46:25.291Z,12.80
2023-02-13T06:52:18.309Z,14.43
2023-02-13T06:58:11.835Z,11.27
2023-02-13T07:04:06.340Z,14.30
2023-02-13T07:09:59.709Z,16.63
2023-02-13T07:15:52.815Z,12.50
2023-02-13T07:21:47.100Z,12.87
2023-02-13T07:27:41.635Z,10.80
2023-02-13T07:33:35.217Z,13.87
2023-02-13T07:39:31.737Z,13.50
2023-02-13T07:45:25.456Z,10.30
2023-02-13T07:51:19.021Z,12.90
2023-02-13T07:57:13.497Z,12.73
2023-02-13T08:03:07.035Z,13.30
2023-02-13T08:09:18.032Z,11.43
2023-02-13T08:15:13.845Z,11.93
2023-02-13T08:21:07.604Z,12.07
2023-02-13T08:27:01.156Z,13.20
2023-02-13T08:32:56.179Z,13.30
2023-02-13T08:38:50.019Z,13.53
2023-02-13T08:44:43.127Z,14.00
2023-02-13T08:50:37.952Z,12.07
2023-02-13T08:56:31.486Z,12.50
2023-02-13T09:02:25.051Z,12.17
2023-02-13T09:08:19.470Z,11.83
2023-02-13T09:14:13.008Z,11.97
2023-02-13T09:20:07.356Z,14.17
2023-02-13T09:26:11.443Z,13.23
2023-02-13T09:32:05.917Z,16.03
2023-02-13T09:38:01.798Z,14.93
2023-02-13T09:44:00.580Z,14.70
2023-02-13T09:49:57.365Z,13.40
2023-02-13T09:56:00.689Z,15.13
2023-02-13T10:01:57.737Z,14.10
2023-02-13T10:08:01.834Z,11.83
2023-02-13T10:14:03.553Z,15.40
2023-02-13T10:20:02.584Z,13.50
2023-02-13T10:25:59.402Z,17.27
2023-02-13T10:31:55.815Z,14.40
2023-02-13T10:37:54.832Z,16.23
2023-02-13T10:43:56.430Z,16.70
2023-02-13T10:50:04.284Z,14.67
2023-02-13T10:56:07.222Z,18.83
2023-02-13T11:02:04.865Z,14.90
2023-02-13T11:08:01.926Z,16.60
2023-02-13T11:14:10.346Z,17.87
2023-02-13T11:20:07.870Z,19.00
2023-02-13T11:26:03.294Z,15.63
2023-02-13T11:32:19.454Z,18.20
2023-02-13T11:38:22.206Z,20.67
2023-02-13T11:44:26.595Z,21.10
2023-02-13T11:50:27.716Z,18.77
2023-02-13T11:56:21.055Z,19.20
2023-02-13T12:02:20.236Z,19.47
2023-02-13T12:08:15.320Z,21.40
2023-02-13T12:14:13.021Z,19.50
2023-02-13T12:20:08.584Z,18.07
2023-02-13T12:26:15.095Z,20.50
2023-02-13T12:32:20.481Z,17.57
2023-02-13T12:38:30.064Z,19.23
2023-02-13T12:44:57.210Z,20.43
2023-02-13T12:51:01.258Z,19.37
2023-02-13T12:57:18.470Z,21.00
2023-02-13T13:03:35.058Z,18.80
2023-02-13T13:09:54.468Z,16.47
2023-02-13T13:16:00.236Z,20.87
2023-02-13T13:22:00.171Z,21.03
2023-02-13T13:27:58.670Z,21.40
2023-02-13T13:33:52.483Z,23.23
2023-02-13T13:39:53.766Z,26.07
2023-02-13T13:45:50.807Z,22.57
2023-02-13T13:51:44.450Z,21.70
2023-02-13T13:58:02.904Z,24.60
2023-02-13T14:03:57.777Z,20.23
2023-02-13T14:09:51.296Z,20.30
2023-02-13T14:15:55.492Z,21.53
2023-02-13T14:21:49.142Z,18.83
2023-02-13T14:27:42.219Z,20.00
2023-02-13T14:33:36.812Z,22.60
2023-02-13T14:39:31.811Z,21.70
2023-02-13T14:45:29.083Z,20.27
2023-02-13T14:51:30.784Z,19.97
2023-02-13T14:57:28.054Z,26.10
2023-02-13T15:03:28.548Z,24.90
2023-02-13T15:09:40.057Z,22.17
2023-02-13T15:15:36.428Z,25.73
2023-02-13T15:21:33.623Z,27.40
2023-02-13T15:27:30.427Z,23.90
2023-02-13T15:33:25.235Z,24.93
2023-02-13T15:39:21.790Z,29.33
2023-02-13T15:45:18.843Z,25.10
2023-02-13T15:51:21.222Z,26.63
2023-02-13T15:57:14.908Z,28.20
2023-02-13T16:03:16.663Z,25.13
2023-02-13T16:09:24.741Z,24.27
2023-02-13T16:15:21.223Z,26.40
2023-02-13T16:21:15.978Z,24.40
2023-02-13T16:27:15.759Z,26.27
2023-02-13T16:33:21.035Z,28.20
2023-02-13T16:39:24.426Z,31.30
2023-02-13T16:45:25.393Z,28.93
2023-02-13T16:51:26.861Z,25.63
2023-02-13T16:57:25.610Z,27.23
2023-02-13T17:03:19.102Z,30.83
2023-02-13T17:09:12.691Z,25.17
2023-02-13T17:15:13.624Z,30.17
2023-02-13T17:21:07.366Z,29.00
2023-02-13T17:27:01.450Z,24.83
2023-02-13T17:33:00.349Z,27.10
2023-02-13T17:38:53.348Z,26.00
2023-02-13T17:44:47.243Z,24.73
2023-02-13T17:50:42.455Z,24.23
2023-02-13T17:56:35.448Z,27.93
2023-02-13T18:02:28.862Z,27.27
2023-02-13T18:08:23.657Z,25.37
2023-02-13T18:14:17.347Z,26.57
2023-02-13T18:20:13.381Z,25.60
2023-02-13T18:26:11.502Z,28.77
2023-02-13T18:32:08.126Z,28.00
2023-02-13T18:38:03.064Z,28.40
2023-02-13T18:43:59.406Z,30.40
2023-02-13T18:49:52.853Z,31.00
2023-02-13T18:55:46.370Z,30.13
2023-02-13T19:01:41.668Z,26.57
2023-02-13T19:07:34.719Z,33.07
2023-02-13T19:13:27.779Z,27.63
2023-02-13T19:19:22.625Z,28.27
2023-02-13T19:25:15.771Z,26.87
2023-02-13T19:31:11.441Z,28.43
2023-02-13T19:37:05.901Z,25.87
2023-02-13T19:42:59.852Z,27.77
2023-02-13T19:48:53.623Z,28.83
2023-02-13T19:54:49.186Z,26.27
2023-02-13T20:00:42.638Z,28.33
2023-02-13T20:06:37.783Z,29.13
2023-02-13T20:12:32.178Z,27.07
2023-02-13T20:18:25.609Z,28.43
2023-02-13T20:24:19.016Z,33.00
2023-02-13T20:30:15.636Z,34.93
2023-02-13T20:36:13.168Z,34.10
2023-02-13T20:42:07.067Z,29.73
2023-02-13T20:48:01.873Z,26.70
2023-02-13T20:53:56.024Z,29.27
2023-02-13T20:59:49.089Z,29.80
2023-02-13T21:05:44.332Z,32.17
2023-02-13T21:11:39.047Z,29.30
2023-02-13T21:17:32.477Z,33.40
2023-02-13T21:23:27.285Z,30.93
2023-02-13T21:29:20.964Z,32.20
2023-02-13T21:35:14.442Z,33.27
2023-02-13T21:41:10.807Z,31.43
2023-02-13T21:47:06.769Z,31.20
2023-02-13T21:53:00.110Z,29.93
2023-02-13T21:58:55.099Z,30.63
2023-02-13T22:04:48.110Z,29.87
2023-02-13T22:10:41.182Z,28.53
2023-02-13T22:16:37.700Z,33.10
2023-02-13T22:22:31.188Z,30.40
2023-02-13T22:28:24.557Z,30.50
2023-02-13T22:34:19.954Z,30.40
2023-02-13T22:40:14.116Z,31.80
2023-02-13T22:46:09.783Z,33.93
2023-02-13T22:52:04.853Z,28.30
2023-02-13T22:57:58.783Z,27.60
2023-02-13T23:03:52.586Z,33.17
2023-02-13T23:09:47.438Z,29.80
2023-02-13T23:15:40.977Z,30.60
2023-02-13T23:21:34.620Z,32.77
2023-02-13T23:27:29.469Z,28.97
2023-02-13T23:33:22.881Z,29.33
2023-02-13T23:39:16.838Z,31.80
2023-02-13T23:45:12.156Z,26.67
2023-02-13T23:51:05.841Z,30.87
2023-02-13T23:56:58.996Z,26.70
